Time;durP1;ratioP1;P1;durP2;ratioP2;P2;SDS_P1;SDS_P2;PMS_P1;PMS_P2;Temp;Humidity;BMP_temperature;BMP_pressure;BME280_temperature;BME280_humidity;BME280_pressure;Samples;Min_cycle;Max_cycle;Signal;HPM_P1;HPM_P2
2022/01/08 00:00:26;;;;;;;3.30;1.60;;;;;;;18.66;55.02;99788.31;5048864;28;20599;-62
2022/01/08 00:02:52;;;;;;;4.10;1.60;;;;;;;18.63;55.09;99772.75;5049012;28;20247;-63
2022/01/08 00:05:18;;;;;;;3.50;1.77;;;;;;;18.63;55.09;99772.75;5048843;28;20778;-62
2022/01/08 00:07:44;;;;;;;3.60;1.80;;;;;;;18.65;54.93;99758.03;5060232;28;20569;-62
2022/01/08 00:10:09;;;;;;;2.97;1.40;;;;;;;18.60;54.99;99758.41;5068044;28;20417;-62
2022/01/08 00:12:35;;;;;;;3.10;1.70;;;;;;;18.61;55.35;99742.91;5069354;28;20221;-62
2022/01/08 00:15:00;;;;;;;4.90;2.20;;;;;;;18.65;54.92;99747.44;5069093;28;20198;-62
2022/01/08 00:17:26;;;;;;;2.63;1.13;;;;;;;18.62;55.11;99736.78;5068198;28;20229;-61
2022/01/08 00:19:51;;;;;;;4.20;1.90;;;;;;;18.62;54.78;99725.34;5050752;28;20631;-62
2022/01/08 00:22:17;;;;;;;2.40;1.47;;;;;;;18.59;55.16;99726.16;5068708;28;20164;-62
2022/01/08 00:24:42;;;;;;;7.03;1.50;;;;;;;18.62;55.03;99716.78;5068864;28;20171;-62
2022/01/08 00:27:07;;;;;;;2.40;1.17;;;;;;;18.59;55.21;99706.16;5068872;28;20174;-62
2022/01/08 00:29:33;;;;;;;3.53;1.53;;;;;;;18.60;55.17;99704.09;5068690;28;20171;-62
2022/01/08 00:31:58;;;;;;;5.13;1.90;;;;;;;18.60;54.82;99702.06;5069079;28;20182;-62
2022/01/08 00:34:24;;;;;;;3.27;1.80;;;;;;;18.62;54.84;99695.97;5068914;28;20167;-62
2022/01/08 00:36:49;;;;;;;4.93;1.70;;;;;;;18.65;54.58;99698.00;5067885;28;20651;-62
2022/01/08 00:39:15;;;;;;;7.37;2.03;;;;;;;18.62;55.18;99684.53;5068004;28;20633;-62
2022/01/08 00:41:40;;;;;;;4.80;1.90;;;;;;;18.59;55.01;99683.28;5067486;28;20167;-62
2022/01/08 00:44:05;;;;;;;3.00;1.80;;;;;;;18.57;55.07;99677.13;5068385;28;20170;-62
2022/01/08 00:46:31;;;;;;;3.67;1.77;;;;;;;18.58;55.16;99673.06;5065685;28;20182;-62
2022/01/08 00:48:56;;;;;;;3.10;1.27;;;;;;;18.56;54.95;99666.09;5067432;28;20181;-62
2022/01/08 00:51:22;;;;;;;3.23;1.80;;;;;;;18.56;54.88;99660.38;5068379;28;20179;-62
2022/01/08 00:53:47;;;;;;;3.17;1.60;;;;;;;18.59;54.71;99660.41;5050715;28;20171;-62
2022/01/08 00:56:15;;;;;;;2.50;1.50;;;;;;;18.59;54.87;99666.13;5068033;28;20205;-62
2022/01/08 00:58:41;;;;;;;2.77;1.70;;;;;;;18.61;54.71;99660.81;5067519;28;20175;-62
2022/01/08 01:01:07;;;;;;;5.00;1.77;;;;;;;18.55;55.03;99645.25;5068099;28;20457;-62
2022/01/08 01:03:33;;;;;;;2.63;1.40;;;;;;;18.53;55.06;99644.00;5066672;28;20620;-62
2022/01/08 01:05:58;;;;;;;2.30;1.30;;;;;;;18.57;54.91;99639.94;5068562;28;20199;-62
2022/01/08 01:08:23;;;;;;;2.57;1.27;;;;;;;18.55;54.84;99641.56;5068254;28;20175;-62
2022/01/08 01:10:49;;;;;;;4.30;1.40;;;;;;;18.57;54.86;99642.81;5068908;28;20171;-62
2022/01/08 01:13:14;;;;;;;2.30;1.30;;;;;;;18.51;54.97;99627.25;5068174;28;20175;-61
2022/01/08 01:15:40;;;;;;;5.97;1.60;;;;;;;18.54;55.03;99635.03;5068422;28;20202;-62
2022/01/08 01:18:06;;;;;;;3.17;1.20;;;;;;;18.53;55.19;99621.16;5067790;28;20172;-61
2022/01/08 01:20:31;;;;;;;2.87;1.37;;;;;;;18.53;55.18;99619.13;5068467;28;20586;-62
2022/01/08 01:23:11;;;;;;;3.70;1.30;;;;;;;18.54;55.11;99617.06;5067537;28;20421;-61
2022/01/08 01:25:41;;;;;;;3.37;1.43;;;;;;;18.55;55.18;99612.97;5065651;28;20179;-61
2022/01/08 01:28:20;;;;;;;7.77;1.63;;;;;;;18.52;55.05;99613.78;5048284;28;20762;-62
2022/01/08 01:41:36;;;;;;;3.10;1.53;;;;;;;18.54;55.15;99591.34;5057424;28;20444;-62
2022/01/08 01:49:18;;;;;;;2.60;1.27;;;;;;;18.47;55.04;99583.53;5032499;28;20402;-62
2022/01/08 01:51:43;;;;;;;2.93;1.40;;;;;;;18.48;55.27;99585.19;5031596;28;20422;-62
2022/01/08 01:54:09;;;;;;;3.53;1.80;;;;;;;18.49;55.00;99588.84;5051065;28;20179;-62
2022/01/08 01:56:35;;;;;;;3.10;1.03;;;;;;;18.49;55.02;99583.97;5033938;28;20203;-62
2022/01/08 01:59:00;;;;;;;2.97;1.40;;;;;;;18.48;55.23;99582.34;5020260;28;20183;-62
2022/01/08 02:01:26;;;;;;;2.43;1.07;;;;;;;18.51;54.82;99587.22;5072808;28;20191;-62
2022/01/08 02:03:51;;;;;;;2.00;1.00;;;;;;;18.51;55.02;99592.94;5071078;28;20182;-62
2022/01/08 02:06:17;;;;;;;2.40;1.30;;;;;;;18.47;55.34;99580.66;5070925;28;20199;-62
2022/01/08 02:08:42;;;;;;;2.17;1.13;;;;;;;18.46;55.28;99581.91;5070876;28;20220;-62
2022/01/08 02:11:08;;;;;;;2.37;1.30;;;;;;;18.47;55.24;99586.38;5071353;28;20183;-62
2022/01/08 02:13:33;;;;;;;2.37;1.37;;;;;;;18.51;54.68;99572.94;5070537;28;20167;-62
2022/01/08 02:16:01;;;;;;;3.20;1.40;;;;;;;18.52;54.62;99565.19;5071294;28;20214;-62
2022/01/08 02:18:26;;;;;;;3.20;1.40;;;;;;;18.48;54.91;99558.63;5070372;28;20232;-62
2022/01/08 02:20:53;;;;;;;1.93;1.03;;;;;;;18.46;54.95;99561.09;5053093;28;21078;-62
2022/01/08 02:23:18;;;;;;;3.13;1.40;;;;;;;18.44;55.22;99552.06;5070730;28;20175;-62
2022/01/08 02:25:44;;;;;;;3.00;1.30;;;;;;;18.44;55.15;99555.75;5070974;28;20498;-62
2022/01/08 02:28:09;;;;;;;3.43;1.30;;;;;;;18.43;54.79;99545.56;5070812;28;20179;-62
2022/01/08 02:30:34;;;;;;;3.10;1.20;;;;;;;18.45;55.04;99548.81;5070735;28;20178;-62
2022/01/08 02:33:00;;;;;;;3.00;1.20;;;;;;;18.46;54.81;99541.06;5070824;28;20289;-62
2022/01/08 02:35:26;;;;;;;3.27;1.20;;;;;;;18.43;55.19;99539.84;5070547;28;20171;-62
2022/01/08 02:37:52;;;;;;;3.30;1.20;;;;;;;18.45;54.83;99533.69;5069913;28;20190;-62
2022/01/08 02:40:21;;;;;;;3.73;1.40;;;;;;;18.43;55.08;99539.00;5073189;28;20167;-62
2022/01/08 02:43:00;;;;;;;2.73;1.23;;;;;;;18.45;54.85;99537.38;5052736;28;20951;-62
2022/01/08 02:45:26;;;;;;;4.47;1.37;;;;;;;18.44;54.77;99523.50;5070571;28;20462;-62
2022/01/08 02:47:52;;;;;;;2.33;0.93;;;;;;;18.43;54.86;99525.56;5070281;28;20417;-62
2022/01/08 02:50:18;;;;;;;2.83;1.20;;;;;;;18.45;55.08;99536.56;5069678;28;20257;-62
2022/01/08 02:52:44;;;;;;;3.60;1.30;;;;;;;18.41;55.35;99538.59;5069451;28;20927;-62
2022/01/08 02:55:10;;;;;;;3.10;1.33;;;;;;;18.40;55.08;99539.78;5083811;28;20604;-62
2022/01/08 02:57:35;;;;;;;2.33;1.10;;;;;;;18.44;54.77;99540.63;5065358;28;20824;-62
2022/01/08 03:00:01;;;;;;;3.20;1.27;;;;;;;18.41;55.00;99539.41;5066868;28;20768;-62
2022/01/08 03:02:27;;;;;;;2.50;1.00;;;;;;;18.38;55.12;99543.06;5069311;28;21084;-62
2022/01/08 03:04:54;;;;;;;3.20;1.27;;;;;;;18.47;55.02;99545.56;5069731;28;20398;-62
2022/01/08 03:07:19;;;;;;;2.40;1.10;;;;;;;18.39;54.82;99544.69;5069050;28;20574;-62
2022/01/08 03:09:51;;;;;;;2.50;1.00;;;;;;;18.43;55.08;99550.44;5070087;28;20424;-62
2022/01/08 03:12:16;;;;;;;3.40;1.50;;;;;;;18.39;55.18;99549.59;5069755;28;20250;-62
2022/01/08 03:14:41;;;;;;;3.03;1.47;;;;;;;18.45;54.93;99556.56;5069357;28;20421;-62
2022/01/08 03:17:07;;;;;;;2.43;1.30;;;;;;;18.43;54.89;99550.44;5070288;28;20587;-62
2022/01/08 03:19:34;;;;;;;3.80;1.20;;;;;;;18.39;55.13;99559.00;5090676;28;20166;-62
2022/01/08 03:22:03;;;;;;;2.60;1.30;;;;;;;18.43;54.82;99557.00;5090150;28;20174;-62
2022/01/08 03:24:29;;;;;;;2.40;1.10;;;;;;;18.42;55.13;99558.19;5089654;28;20485;-62
2022/01/08 03:26:54;;;;;;;1.93;1.20;;;;;;;18.42;54.77;99560.25;5063205;28;20446;-62
2022/01/08 03:29:20;;;;;;;2.50;1.30;;;;;;;18.42;55.17;99566.75;5049543;28;20428;-62
2022/01/08 03:31:46;;;;;;;2.00;1.10;;;;;;;18.38;54.98;99563.06;5032957;28;20174;-62
2022/01/08 03:34:11;;;;;;;4.40;1.60;;;;;;;18.40;54.92;99563.50;5069542;28;20654;-62
2022/01/08 03:36:36;;;;;;;2.70;1.33;;;;;;;18.39;55.10;99566.72;5067859;28;20551;-62
2022/01/08 03:39:02;;;;;;;2.50;1.30;;;;;;;18.37;55.23;99578.56;5088991;28;20190;-62
2022/01/08 03:41:27;;;;;;;1.70;0.80;;;;;;;18.37;54.93;99581.41;5089789;28;20215;-62
2022/01/08 03:43:53;;;;;;;2.17;1.30;;;;;;;18.41;55.01;99572.88;5088682;28;20178;-62
2022/01/08 03:46:20;;;;;;;3.30;1.30;;;;;;;18.42;54.87;99589.63;5088894;28;20194;-62
2022/01/08 03:48:57;;;;;;;1.90;1.00;;;;;;;18.37;54.94;99604.28;5082499;28;20171;-62
2022/01/08 03:51:23;;;;;;;1.90;1.03;;;;;;;18.41;54.81;99599.41;5071849;28;20417;-62
2022/01/08 03:53:48;;;;;;;2.23;1.00;;;;;;;18.38;54.83;99602.25;5068650;28;20424;-62
2022/01/08 03:56:13;;;;;;;2.00;0.90;;;;;;;18.34;54.90;99609.97;5068007;28;20195;-62
2022/01/08 03:58:39;;;;;;;3.10;1.40;;;;;;;18.38;54.83;99617.38;5068605;28;20171;-62
2022/01/08 04:01:04;;;;;;;2.07;1.20;;;;;;;18.36;55.26;99616.94;5068807;28;20237;-62
2022/01/08 04:03:30;;;;;;;3.57;1.33;;;;;;;18.39;55.12;99626.75;5068752;28;20536;-62
2022/01/08 04:05:55;;;;;;;2.10;1.10;;;;;;;18.35;54.92;99623.88;5068877;28;20548;-62
2022/01/08 04:08:21;;;;;;;2.77;0.90;;;;;;;18.35;55.30;99635.31;5068809;28;20514;-62
2022/01/08 04:10:46;;;;;;;2.37;1.10;;;;;;;18.35;55.15;99632.44;5050801;28;20179;-62
2022/01/08 04:13:15;;;;;;;1.60;0.80;;;;;;;18.39;55.18;99650.44;5069092;28;20179;-62
2022/01/08 04:15:43;;;;;;;1.73;1.07;;;;;;;18.39;54.70;99647.59;5068093;28;20263;-63
2022/01/08 04:18:09;;;;;;;3.23;1.30;;;;;;;18.37;55.05;99655.72;5068101;28;20487;-62
2022/01/08 04:21:58;;;;;;;2.23;0.97;;;;;;;18.34;55.05;99658.56;5068999;28;20468;-62
2022/01/08 04:23:22;;;;;;;2.30;1.10;;;;;;;18.38;54.72;99667.97;5057788;28;20251;-62
2022/01/08 04:25:48;;;;;;;3.10;1.10;;;;;;;18.38;55.09;99674.53;5068959;28;20429;-62
2022/01/08 04:28:13;;;;;;;2.43;1.20;;;;;;;18.37;54.72;99684.28;5067932;28;20449;-62
2022/01/08 04:30:39;;;;;;;2.33;1.13;;;;;;;18.39;54.84;99698.19;5068483;28;20523;-62
2022/01/08 04:33:04;;;;;;;2.00;0.90;;;;;;;18.36;55.12;99704.72;5068255;28;20183;-62
2022/01/08 04:35:30;;;;;;;2.20;1.10;;;;;;;18.38;54.93;99700.25;5068823;28;20181;-62
2022/01/08 04:37:55;;;;;;;2.20;1.40;;;;;;;18.34;55.19;99725.09;5068444;28;20182;-62
2022/01/08 04:40:21;;;;;;;2.07;1.07;;;;;;;18.36;54.95;99739.81;5067299;28;20735;-62
2022/01/08 04:42:46;;;;;;;2.00;1.00;;;;;;;18.40;54.77;99759.84;5067554;28;20240;-62
2022/01/08 04:45:12;;;;;;;2.43;1.03;;;;;;;18.37;55.20;99764.31;5068256;28;20175;-62
2022/01/08 04:47:39;;;;;;;1.90;0.90;;;;;;;18.36;55.04;99779.03;5068047;28;20317;-62
2022/01/08 04:50:04;;;;;;;1.70;0.87;;;;;;;18.38;54.82;99788.84;5086663;28;20429;-62
2022/01/08 04:52:30;;;;;;;2.70;1.00;;;;;;;18.39;54.54;99801.06;5079908;28;20417;-62
2022/01/08 04:54:55;;;;;;;3.03;1.10;;;;;;;18.41;54.65;99815.81;5078057;28;20524;-62
2022/01/08 04:57:21;;;;;;;2.03;1.20;;;;;;;18.40;54.53;99820.69;5060039;28;20674;-62
2022/01/08 04:59:46;;;;;;;4.87;1.30;;;;;;;18.39;54.87;99841.09;5067830;28;20234;-62
2022/01/08 05:02:11;;;;;;;1.53;0.80;;;;;;;18.39;54.69;99853.34;5068407;28;20183;-62
2022/01/08 05:04:37;;;;;;;2.57;1.20;;;;;;;18.33;54.76;99863.50;5068893;28;20183;-62
2022/01/08 05:07:03;;;;;;;2.00;1.10;;;;;;;18.30;55.42;99872.81;5050177;28;20187;-63
2022/01/08 05:09:28;;;;;;;2.77;1.00;;;;;;;18.35;55.11;99885.94;5068236;28;20324;-62
2022/01/08 05:11:53;;;;;;;5.10;1.10;;;;;;;18.36;54.97;99897.00;5068369;28;20182;-63
2022/01/08 05:14:19;;;;;;;2.20;1.10;;;;;;;18.37;54.67;99900.69;5068452;28;20171;-62
2022/01/08 05:16:46;;;;;;;1.70;0.90;;;;;;;18.37;54.68;99907.22;5068031;28;20192;-62
2022/01/08 05:19:11;;;;;;;1.80;0.80;;;;;;;18.36;54.61;99922.72;5067874;28;20696;-62
2022/01/08 05:21:38;;;;;;;1.70;0.90;;;;;;;18.38;54.63;99933.75;5067803;28;20417;-62
2022/01/08 05:24:04;;;;;;;2.67;1.03;;;;;;;18.35;54.86;99940.25;5068050;28;20679;-62
2022/01/08 05:26:30;;;;;;;2.07;0.97;;;;;;;18.37;55.04;99946.41;5069443;28;20515;-62
2022/01/08 05:28:55;;;;;;;1.83;0.90;;;;;;;18.35;54.96;99960.25;5071828;28;20446;-63
2022/01/08 05:31:22;;;;;;;3.10;0.90;;;;;;;18.36;54.96;99965.59;5053698;28;20552;-63
2022/01/08 05:33:48;;;;;;;2.10;1.00;;;;;;;18.37;54.71;99981.50;5071846;28;20167;-63
2022/01/08 05:36:14;;;;;;;1.80;0.90;;;;;;;18.33;55.04;99980.66;5071841;28;20464;-63
2022/01/08 05:38:42;;;;;;;2.43;0.90;;;;;;;18.32;55.39;99992.44;5071507;28;20174;-63
2022/01/08 05:41:08;;;;;;;3.03;1.00;;;;;;;18.35;54.87;100003.13;5072920;28;20183;-63
2022/01/08 05:43:33;;;;;;;1.87;1.00;;;;;;;18.37;54.64;100012.94;5070567;28;20923;-63
2022/01/08 05:45:59;;;;;;;2.80;1.10;;;;;;;18.41;54.72;100015.88;5092436;28;20538;-63
2022/01/08 05:48:25;;;;;;;2.30;0.90;;;;;;;18.33;55.18;100020.69;5073017;28;20547;-63
2022/01/08 05:50:50;;;;;;;2.00;1.13;;;;;;;18.33;54.94;100032.09;5091863;28;20175;-62
2022/01/08 05:53:17;;;;;;;3.10;1.10;;;;;;;18.31;54.96;100042.25;5091854;28;20636;-62
2022/01/08 05:55:42;;;;;;;2.37;0.90;;;;;;;18.34;54.94;100050.06;5084533;28;20275;-62
2022/01/08 05:58:08;;;;;;;2.13;0.90;;;;;;;18.34;54.91;100056.63;5061245;28;20425;-62
2022/01/08 06:00:33;;;;;;;1.53;0.80;;;;;;;18.36;54.79;100071.31;5071575;28;20667;-62
2022/01/08 06:02:58;;;;;;;1.80;1.00;;;;;;;18.35;55.36;100068.84;5070614;28;20518;-62
2022/01/08 06:05:25;;;;;;;2.03;1.00;;;;;;;18.37;54.70;100069.31;5071485;28;20178;-62
2022/01/08 06:07:50;;;;;;;2.30;1.00;;;;;;;18.35;54.81;100077.44;5070959;28;20667;-62
2022/01/08 06:10:16;;;;;;;1.67;0.80;;;;;;;18.35;54.86;100086.84;5071237;28;20817;-62
2022/01/08 06:12:41;;;;;;;2.63;1.00;;;;;;;18.34;54.99;100092.94;5070913;28;20221;-63
2022/01/08 06:15:07;;;;;;;2.10;1.07;;;;;;;18.41;54.63;100104.50;5071593;28;20178;-63
2022/01/08 06:17:32;;;;;;;1.60;0.80;;;;;;;18.40;54.95;100105.69;5070644;28;20226;-63
2022/01/08 06:19:58;;;;;;;1.87;1.10;;;;;;;18.38;54.61;100116.69;5071048;28;20630;-63
2022/01/08 06:22:23;;;;;;;1.60;0.80;;;;;;;18.36;54.62;100122.78;5071249;28;20248;-63
2022/01/08 06:24:49;;;;;;;2.17;1.10;;;;;;;18.32;54.81;100136.19;5071000;28;20619;-63
2022/01/08 06:27:14;;;;;;;2.57;1.03;;;;;;;18.36;54.60;100134.22;5052081;28;20179;-63
2022/01/08 06:29:40;;;;;;;2.47;0.80;;;;;;;18.38;54.52;100154.69;5070778;28;20186;-63
2022/01/08 06:32:05;;;;;;;2.60;0.93;;;;;;;18.37;54.89;100155.06;5071094;28;20183;-63
2022/01/08 06:34:31;;;;;;;2.50;0.80;;;;;;;18.38;54.66;100159.56;5070917;28;20221;-63
2022/01/08 06:36:56;;;;;;;2.23;0.70;;;;;;;18.37;54.74;100161.56;5069848;28;20598;-63
2022/01/08 06:39:22;;;;;;;2.90;0.90;;;;;;;18.38;54.75;100177.53;5069452;28;20190;-63
2022/01/08 06:41:47;;;;;;;2.27;0.83;;;;;;;18.37;55.11;100173.00;5070658;28;20186;-63
2022/01/08 06:44:13;;;;;;;1.67;0.80;;;;;;;18.38;54.75;100174.69;5071066;28;20609;-63
2022/01/08 06:46:40;;;;;;;1.70;0.90;;;;;;;18.41;54.72;100188.19;5035592;28;20187;-63
2022/01/08 06:49:06;;;;;;;1.77;0.80;;;;;;;18.34;54.96;100188.06;5070681;28;20524;-63
2022/01/08 06:51:31;;;;;;;1.83;0.90;;;;;;;18.38;54.89;100191.00;5070090;28;20531;-63
2022/01/08 06:53:57;;;;;;;1.40;0.77;;;;;;;18.40;54.40;100206.56;5069829;28;20188;-63
2022/01/08 06:56:22;;;;;;;1.40;0.70;;;;;;;18.38;54.87;100200.41;5049656;28;20693;-63
2022/01/08 06:58:48;;;;;;;1.90;0.87;;;;;;;18.38;54.77;100206.13;5065210;28;20186;-63
2022/01/08 07:01:14;;;;;;;1.80;1.00;;;;;;;18.37;54.44;100201.59;5064960;28;20376;-63
2022/01/08 07:03:39;;;;;;;2.00;0.90;;;;;;;18.39;55.00;100206.94;5052155;28;20484;-63
2022/01/08 07:06:05;;;;;;;1.90;1.10;;;;;;;18.33;54.92;100206.44;5070671;28;20199;-63
2022/01/08 07:08:30;;;;;;;1.90;0.80;;;;;;;18.38;54.37;100211.00;5069279;28;20254;-63
2022/01/08 07:10:56;;;;;;;1.90;0.80;;;;;;;18.39;54.73;100224.91;5070246;28;20168;-63
2022/01/08 07:13:21;;;;;;;1.70;0.80;;;;;;;18.41;54.57;100227.41;5052202;28;20187;-63
2022/01/08 07:15:47;;;;;;;2.00;0.90;;;;;;;18.40;54.60;100235.13;5069852;28;20183;-63
2022/01/08 07:18:12;;;;;;;1.53;0.90;;;;;;;18.38;54.67;100239.59;5079695;28;20190;-63
2022/01/08 07:20:37;;;;;;;1.73;0.80;;;;;;;18.35;54.60;100235.44;5090100;28;20230;-63
2022/01/08 07:23:03;;;;;;;3.30;1.10;;;;;;;18.35;54.66;100252.59;5090320;28;20166;-63
2022/01/08 07:25:28;;;;;;;1.57;0.80;;;;;;;18.34;54.57;100264.41;5087740;28;20175;-63
2022/01/08 07:27:54;;;;;;;1.60;0.80;;;;;;;18.32;54.82;100261.09;5049226;28;20191;-63
2022/01/08 07:30:19;;;;;;;2.53;1.00;;;;;;;18.34;54.66;100270.97;5049706;28;20179;-63
2022/01/08 07:32:46;;;;;;;2.30;1.03;;;;;;;18.38;54.61;100291.03;5058823;28;20206;-63
2022/01/08 07:35:14;;;;;;;1.70;0.80;;;;;;;18.35;54.58;100286.91;5066572;28;20175;-63
2022/01/08 07:37:39;;;;;;;1.60;0.80;;;;;;;18.37;54.30;100297.97;5060639;28;20456;-63
2022/01/08 07:40:05;;;;;;;2.33;1.00;;;;;;;18.36;54.72;100307.75;5069701;28;20422;-62
2022/01/08 07:42:31;;;;;;;1.80;0.93;;;;;;;18.38;54.54;100308.19;5069351;28;20214;-63
2022/01/08 07:44:56;;;;;;;1.83;0.80;;;;;;;18.31;54.74;100320.25;5069633;28;20495;-63
2022/01/08 07:47:21;;;;;;;2.67;0.90;;;;;;;18.37;54.71;100313.06;5051219;28;20186;-62
2022/01/08 07:49:47;;;;;;;1.67;0.87;;;;;;;18.34;54.46;100322.41;5071939;28;20183;-62
2022/01/08 07:52:12;;;;;;;1.50;0.73;;;;;;;18.37;54.56;100317.97;5068816;28;20179;-62
2022/01/08 07:54:38;;;;;;;2.13;0.97;;;;;;;18.35;54.78;100318.34;5069303;28;20180;-62
2022/01/08 07:57:03;;;;;;;1.50;0.80;;;;;;;18.36;54.59;100319.97;5068690;28;20215;-62
2022/01/08 07:59:29;;;;;;;1.70;0.80;;;;;;;18.37;54.69;100315.91;5069007;28;20222;-62
2022/01/08 08:01:54;;;;;;;1.40;0.70;;;;;;;18.38;54.66;100313.91;5069290;28;20843;-62
2022/01/08 08:04:19;;;;;;;2.00;0.80;;;;;;;18.36;54.61;100311.41;5068961;28;20175;-62
2022/01/08 08:06:46;;;;;;;1.63;0.73;;;;;;;18.35;54.62;100321.19;5069664;28;20202;-62
2022/01/08 08:09:11;;;;;;;1.40;0.60;;;;;;;18.36;54.58;100328.56;5051000;28;20564;-62
2022/01/08 08:11:37;;;;;;;2.20;0.90;;;;;;;18.40;54.61;100329.47;5067940;28;20416;-62
2022/01/08 08:14:03;;;;;;;1.60;0.70;;;;;;;18.36;54.61;100339.19;5068528;28;20175;-62
2022/01/08 08:16:28;;;;;;;1.83;0.80;;;;;;;18.40;54.44;100340.91;5068922;28;20195;-62
2022/01/08 08:18:53;;;;;;;2.83;0.90;;;;;;;18.37;54.69;100344.50;5068154;28;20174;-62
2022/01/08 08:21:19;;;;;;;1.90;0.90;;;;;;;18.35;54.60;100338.34;5069322;28;20175;-62
2022/01/08 08:23:44;;;;;;;1.97;0.73;;;;;;;18.38;54.39;100345.34;5068274;28;20529;-62
2022/01/08 08:26:10;;;;;;;1.57;0.70;;;;;;;18.37;54.39;100335.94;5068936;28;20175;-62
2022/01/08 08:28:35;;;;;;;1.43;0.70;;;;;;;18.34;54.71;100336.69;5068724;28;20657;-62
2022/01/08 08:31:01;;;;;;;1.70;0.80;;;;;;;18.32;54.85;100350.53;5068721;28;20178;-62
2022/01/08 08:33:26;;;;;;;1.80;0.80;;;;;;;18.31;54.78;100337.41;5068435;28;20525;-62
2022/01/08 08:35:51;;;;;;;2.33;0.80;;;;;;;18.33;54.57;100340.78;5067876;28;20167;-62
2022/01/08 08:38:17;;;;;;;1.60;0.80;;;;;;;18.35;54.34;100344.06;5068276;28;20297;-62
2022/01/08 08:40:42;;;;;;;1.67;0.70;;;;;;;18.31;55.00;100346.00;5050484;28;20186;-62
2022/01/08 08:43:08;;;;;;;1.50;0.60;;;;;;;18.33;54.49;100343.63;5068584;28;20538;-62
2022/01/08 08:45:34;;;;;;;1.73;0.83;;;;;;;18.33;54.52;100346.50;5050936;28;20510;-62
2022/01/08 08:47:59;;;;;;;1.60;0.80;;;;;;;18.35;54.48;100344.06;5067723;28;20459;-62
2022/01/08 08:50:25;;;;;;;1.60;0.70;;;;;;;18.34;54.53;100356.72;5069245;28;20174;-62
2022/01/08 08:52:53;;;;;;;1.80;0.90;;;;;;;18.34;54.64;100355.88;5076186;28;20171;-62
2022/01/08 08:55:19;;;;;;;1.90;0.87;;;;;;;18.28;54.97;100361.06;5067662;28;20186;-62
2022/01/08 08:57:45;;;;;;;2.60;1.27;;;;;;;18.28;54.65;100365.94;5065741;28;20473;-62
2022/01/08 09:00:11;;;;;;;1.60;0.70;;;;;;;18.29;54.79;100370.44;5048379;28;20220;-62
2022/01/08 09:02:36;;;;;;;1.40;0.67;;;;;;;18.31;54.67;100376.63;5034382;28;20429;-62
2022/01/08 09:05:03;;;;;;;1.40;0.70;;;;;;;18.29;54.70;100359.84;5034550;28;20574;-62
2022/01/08 09:07:28;;;;;;;1.97;0.97;;;;;;;18.30;54.71;100363.50;5052017;28;20245;-62
2022/01/08 09:09:54;;;;;;;1.60;0.80;;;;;;;18.29;54.84;100362.69;5058421;28;20413;-62
2022/01/08 09:12:19;;;;;;;1.60;0.70;;;;;;;18.30;54.70;100358.63;5072159;28;20186;-62
2022/01/08 09:14:45;;;;;;;2.33;1.00;;;;;;;18.30;54.73;100363.50;5071363;28;20194;-62
2022/01/08 09:17:10;;;;;;;1.43;0.83;;;;;;;18.31;54.71;100363.13;5072901;28;20234;-62
2022/01/08 09:19:35;;;;;;;2.80;1.00;;;;;;;18.28;54.61;100369.63;5092772;28;20170;-62
2022/01/08 09:22:01;;;;;;;1.87;0.80;;;;;;;18.30;54.78;100372.91;5074029;28;20547;-62
2022/01/08 09:24:27;;;;;;;1.70;0.70;;;;;;;18.27;54.49;100367.13;5092418;28;20185;-62
2022/01/08 09:26:53;;;;;;;1.60;0.77;;;;;;;18.28;54.84;100369.63;5065725;28;20890;-62
2022/01/08 09:29:18;;;;;;;1.50;0.70;;;;;;;18.25;54.77;100366.66;5051714;28;20176;-62
2022/01/08 09:31:44;;;;;;;1.80;1.00;;;;;;;18.26;54.59;100360.59;5052703;28;20179;-62
2022/01/08 09:34:09;;;;;;;1.60;0.73;;;;;;;18.21;54.99;100363.75;5072074;28;20639;-62
2022/01/08 09:36:38;;;;;;;1.60;0.70;;;;;;;18.22;54.64;100365.41;5069861;28;20202;-62
2022/01/08 09:39:04;;;;;;;2.00;0.80;;;;;;;18.23;54.67;100369.94;5033738;28;20187;-62
2022/01/08 09:41:30;;;;;;;2.03;0.70;;;;;;;18.21;54.81;100369.47;5017841;28;20454;-62
2022/01/08 09:43:55;;;;;;;1.37;0.60;;;;;;;18.27;54.54;100358.56;5068022;28;20462;-62
2022/01/08 09:46:21;;;;;;;1.60;0.77;;;;;;;18.23;54.78;100364.22;5071345;28;20171;-62
2022/01/08 09:48:47;;;;;;;1.70;1.00;;;;;;;18.20;54.96;100364.97;5070734;28;20183;-62
2022/01/08 09:51:13;;;;;;;1.43;0.67;;;;;;;18.21;55.03;100365.78;5068050;28;20257;-62
2022/01/08 09:53:39;;;;;;;1.80;0.80;;;;;;;18.22;54.39;100364.59;5071429;28;20892;-62
2022/01/08 09:56:04;;;;;;;1.70;0.80;;;;;;;18.20;54.58;100359.25;5071316;28;20206;-62
2022/01/08 09:58:30;;;;;;;1.60;0.73;;;;;;;18.22;54.71;100361.72;5070854;28;20199;-62
2022/01/08 10:00:55;;;;;;;1.50;0.63;;;;;;;18.19;54.67;100353.91;5071263;28;20222;-62
2022/01/08 10:03:23;;;;;;;1.40;0.70;;;;;;;18.18;54.77;100349.41;5071255;28;20194;-62
2022/01/08 10:05:48;;;;;;;1.80;0.80;;;;;;;18.20;54.75;100350.66;5070962;28;20191;-62
2022/01/08 10:08:15;;;;;;;1.73;0.90;;;;;;;18.18;54.66;100349.41;5071011;28;20420;-62
2022/01/08 10:10:40;;;;;;;2.43;0.90;;;;;;;18.18;54.44;100341.66;5053243;28;20159;-62
2022/01/08 10:13:06;;;;;;;2.03;0.90;;;;;;;18.20;54.86;100344.94;5071368;28;20425;-62
2022/01/08 10:18:27;;;;;;;2.90;1.00;;;;;;;18.15;55.05;100335.84;5070440;28;20206;-62
2022/01/08 10:20:52;;;;;;;1.90;0.80;;;;;;;18.14;54.97;100340.75;5070932;28;20417;-62
2022/01/08 10:23:22;;;;;;;1.67;0.70;;;;;;;18.18;54.66;100344.53;5070600;28;20433;-62
2022/01/08 10:26:07;;;;;;;1.80;0.80;;;;;;;18.15;54.65;100333.00;5071000;28;20305;-62
2022/01/08 10:28:50;;;;;;;1.70;0.80;;;;;;;18.16;54.83;100332.63;5070800;28;20401;-61
2022/01/08 10:31:23;;;;;;;1.87;0.70;;;;;;;18.14;54.79;100326.47;5070882;28;20832;-61
2022/01/08 10:34:05;;;;;;;1.63;0.80;;;;;;;18.15;54.67;100330.97;5051746;28;20786;-61
2022/01/08 10:36:40;;;;;;;1.63;0.67;;;;;;;18.14;54.99;100322.78;5070933;28;20441;-61
2022/01/08 10:39:09;;;;;;;1.50;0.77;;;;;;;18.13;55.04;100324.81;5070160;28;20428;-61
2022/01/08 10:41:42;;;;;;;1.70;0.77;;;;;;;18.12;54.87;100317.44;5069204;28;20504;-61
2022/01/08 10:44:13;;;;;;;1.53;0.70;;;;;;;18.09;54.77;100311.66;5052555;28;20425;-62
2022/01/08 10:46:42;;;;;;;1.70;0.70;;;;;;;18.14;54.84;100302.78;5070645;28;20524;-62
2022/01/08 10:49:08;;;;;;;1.50;0.63;;;;;;;18.13;54.82;100307.69;5052859;28;20425;-62
2022/01/08 10:51:37;;;;;;;1.43;0.70;;;;;;;18.12;54.78;100308.84;5048387;28;20496;-61
2022/01/08 10:54:10;;;;;;;1.37;0.70;;;;;;;18.13;54.93;100309.69;5050784;28;20175;-61
2022/01/08 10:56:42;;;;;;;1.93;0.90;;;;;;;18.12;54.80;100306.00;5061133;28;20818;-61
2022/01/08 10:59:20;;;;;;;1.70;0.70;;;;;;;18.09;54.93;100309.63;5069500;28;20410;-61
2022/01/08 11:01:56;;;;;;;2.10;0.87;;;;;;;18.13;54.89;100307.69;5070026;28;20417;-61
2022/01/08 11:04:54;;;;;;;2.90;1.00;;;;;;;18.15;54.74;100310.13;5070558;28;20512;-61
2022/01/08 11:07:23;;;;;;;2.00;0.90;;;;;;;18.11;54.74;100292.13;5068931;28;20448;-61
2022/01/08 11:09:50;;;;;;;1.60;0.70;;;;;;;18.11;54.67;100292.13;5085894;28;20435;-61
2022/01/08 11:12:18;;;;;;;1.70;1.00;;;;;;;18.10;54.65;100293.28;5090134;28;21020;-61
2022/01/08 11:17:26;;;;;;;1.30;0.60;;;;;;;18.08;54.79;100285.13;5089048;28;20451;-61
2022/01/08 11:19:53;;;;;;;1.93;0.70;;;;;;;18.06;54.73;100283.84;5071871;28;20770;-61
2022/01/08 11:22:20;;;;;;;1.90;0.90;;;;;;;18.08;54.72;100279.41;5090535;28;20420;-61
2022/01/08 11:25:00;;;;;;;1.97;0.80;;;;;;;18.08;54.91;100278.56;5089611;28;20462;-61
2022/01/08 11:27:47;;;;;;;2.27;1.00;;;;;;;18.02;54.58;100263.78;5054124;28;20418;-61
2022/01/08 11:30:14;;;;;;;1.80;0.73;;;;;;;18.03;54.92;100268.31;5048672;28;20890;-61
2022/01/08 11:32:40;;;;;;;2.03;0.90;;;;;;;18.02;55.22;100263.78;5056983;28;20413;-61
2022/01/08 11:35:07;;;;;;;2.00;0.93;;;;;;;18.04;54.77;100246.25;5051547;28;20781;-61
2022/01/08 11:37:33;;;;;;;1.70;0.90;;;;;;;18.03;55.04;100248.31;5068576;28;20457;-61
2022/01/08 11:40:03;;;;;;;1.90;0.90;;;;;;;18.02;55.21;100240.91;5065833;28;20443;-61
2022/01/08 11:42:28;;;;;;;2.53;0.80;;;;;;;18.02;54.87;100243.78;5068677;28;20546;-61
2022/01/08 11:44:54;;;;;;;1.70;0.80;;;;;;;18.00;54.92;100246.19;5089213;28;20464;-62
2022/01/08 11:47:20;;;;;;;1.80;0.80;;;;;;;18.04;54.65;100240.53;5089718;28;20178;-62